Flight Track Log - Related Links

Times and Time Zones

All times are in EDT time to prevent confusion due to time zone crossing. See the N960DL flight status page for this flight to view local times or setup timezone preferences in your user account.

Time Position Orientation Groundspeed Altitude Reporting Facility
EDT Latitude Longitude Course Direction KTS MPH feet Rate Location/Type
Thu 03:24:42 PM 33.6517 -84.4806 North 446 513 2,500  Level Atlanta Center
Thu 03:25:42 PM 33.6825 -84.5631 294° West 372 428 4,800 2,550 Climbing Atlanta Center
Thu 03:26:00 PM 33.8121 -84.1667 North  Level FlightAware Approximate
Thu 03:26:42 PM 33.7450 -84.5908 340° North 281 323 7,600  Level Atlanta Center
Thu 03:27:00 PM 33.9049 -84.2382 320° Northwest  Level FlightAware Approximate
Thu 03:27:42 PM 33.8286 -84.5614 16° North 295 339 10,700  Level Atlanta Center
Thu 03:28:00 PM 34.0107 -84.2667 North  Level FlightAware Approximate
Thu 03:28:42 PM 33.8792 -84.4717 56° Northeast 333 383 11,800  Level Atlanta Center
Thu 03:29:00 PM 34.1249 -84.2667 North  Level FlightAware Approximate
Thu 03:29:42 PM 33.9608 -84.3919 39° Northeast 391 450 13,500  Level Atlanta Center
Thu 03:30:00 PM 34.2392 -84.2667 North  Level FlightAware Approximate
Thu 03:30:42 PM 34.0653 -84.3572 15° North 360 414 17,400  Level Atlanta Center
Thu 03:31:42 PM 34.1697 -84.3200 16° North 368 423 19,600 1,700 Climbing Atlanta Center
Thu 03:32:42 PM 34.2742 -84.2903 13° North 385 443 20,800 1,250 Climbing Atlanta Center
Thu 03:33:42 PM 34.3931 -84.2603 12° North 409 471 22,100 1,500 Climbing Atlanta Center
Thu 03:34:42 PM 34.5119 -84.2328 11° North 426 490 23,800 1,650 Climbing Atlanta Center
Thu 03:35:42 PM 34.6331 -84.2028 12° North 438 504 25,400 1,600 Climbing Atlanta Center
Thu 03:36:42 PM 34.7522 -84.1803 North 438 504 27,000 1,750 Climbing Atlanta Center
Thu 03:37:42 PM 34.8711 -84.1503 12° North 438 504 28,900 1,900 Climbing Atlanta Center
Thu 03:38:42 PM 34.9881 -84.1225 11° North 432 497 30,800 1,350 Climbing Atlanta Center
Thu 03:39:42 PM 35.1028 -84.0922 12° North 420 483 31,600 1,150 Climbing Atlanta Center
Thu 03:40:42 PM 35.2197 -84.0642 11° North 420 483 33,100 1,200 Climbing Atlanta Center
Thu 03:41:42 PM 35.3303 -84.0336 13° North 410 472 34,000 450 Climbing Atlanta Center
Thu 03:42:42 PM 35.4367 -84.0081 11° North 405 466 34,000 50 Level Atlanta Center
Thu 03:43:42 PM 35.5450 -83.9825 11° North 400 460 34,100 250 Climbing Atlanta Center
Thu 03:44:42 PM 35.6536 -83.9544 12° North 395 455 34,500 450 Climbing Atlanta Center
Thu 03:45:42 PM 35.7619 -83.9286 11° North 395 455 35,000 250 Climbing Atlanta Center
Thu 03:46:42 PM 35.8683 -83.9031 11° North 395 455 35,000  Level Atlanta Center
Thu 03:47:42 PM 35.9706 -83.8514 22° Northeast 395 455 35,000  Level Atlanta Center
Thu 03:48:42 PM 36.0747 -83.7869 27° Northeast 400 460 35,000  Level Atlanta Center
Thu 03:49:42 PM 36.1725 -83.7250 27° Northeast 400 460 35,000  Level Atlanta Center
Thu 03:50:17 PM 36.2328 -83.6833 29° Northeast 405 466 35,000  Level Indianapolis Center
Thu 03:51:19 PM 36.3336 -83.6200 27° Northeast 405 466 35,000  Level Indianapolis Center
Thu 03:52:21 PM 36.4322 -83.5561 28° Northeast 402 463 35,000  Level Indianapolis Center
Thu 03:53:23 PM 36.5414 -83.4861 27° Northeast 404 465 35,000  Level Indianapolis Center
Thu 03:54:25 PM 36.6422 -83.4217 27° Northeast 403 464 35,000  Level Indianapolis Center
Thu 03:55:27 PM 36.7425 -83.3569 27° Northeast 401 461 35,000  Level Indianapolis Center
Thu 03:56:29 PM 36.8444 -83.2928 27° Northeast 404 465 35,000  Level Indianapolis Center
Thu 03:57:31 PM 36.9475 -83.2272 27° Northeast 412 474 35,000  Level Indianapolis Center
Thu 03:58:33 PM 37.0514 -83.1606 27° Northeast 413 475 35,000  Level Indianapolis Center
Thu 03:59:35 PM 37.1556 -83.0944 27° Northeast 416 479 35,000  Level Indianapolis Center
Thu 04:00:37 PM 37.2783 -83.0333 22° Northeast 404 465 35,000  Level Indianapolis Center
Thu 04:01:39 PM 37.3833 -82.9833 21° North 401 461 35,000  Level Indianapolis Center
Thu 04:02:41 PM 37.4903 -82.9347 20° North 407 468 35,000  Level Indianapolis Center
Thu 04:03:44 PM 37.5953 -82.8858 20° North 402 463 35,000  Level Indianapolis Center
Thu 04:04:46 PM 37.7006 -82.8358 21° North 402 463 35,000  Level Indianapolis Center
Thu 04:05:48 PM 37.7953 -82.7550 34° Northeast 409 471 35,000  Level Indianapolis Center
Thu 04:06:50 PM 37.9069 -82.6650 32° Northeast 407 468 35,000  Level Indianapolis Center
Thu 04:07:52 PM 38.0136 -82.6219 18° North 402 463 35,000  Level Indianapolis Center
Thu 04:08:54 PM 38.1142 -82.5522 29° Northeast 406 467 35,000  Level Indianapolis Center
Thu 04:09:56 PM 38.2167 -82.4772 30° Northeast 406 467 35,000  Level Indianapolis Center
Thu 04:10:58 PM 38.3161 -82.4075 29° Northeast 408 470 35,000  Level Indianapolis Center
Thu 04:12:00 PM 38.4153 -82.3375 29° Northeast 406 467 35,000  Level Indianapolis Center
Thu 04:13:02 PM 38.5156 -82.2664 29° Northeast 408 470 35,000  Level Indianapolis Center
Thu 04:14:04 PM 38.6158 -82.1978 28° Northeast 407 468 35,000  Level Indianapolis Center
Thu 04:15:06 PM 38.7161 -82.1247 30° Northeast 411 473 35,000  Level Indianapolis Center
Thu 04:16:08 PM 38.8367 -82.0389 29° Northeast 410 472 35,000  Level Indianapolis Center
Thu 04:17:10 PM 38.9381 -81.9667 29° Northeast 410 472 35,000  Level Indianapolis Center
Thu 04:18:12 PM 39.0397 -81.8964 28° Northeast 412 474 35,000  Level Indianapolis Center
Thu 04:19:14 PM 39.1417 -81.8261 28° Northeast 412 474 35,000  Level Indianapolis Center
Thu 04:20:16 PM 39.2461 -81.7508 29° Northeast 422 486 35,000  Level Indianapolis Center
Thu 04:21:19 PM 39.3492 -81.6781 29° Northeast 422 486 35,000  Level Indianapolis Center
Thu 04:22:21 PM 39.4514 -81.6031 30° Northeast 421 484 35,000  Level Indianapolis Center
Thu 04:23:23 PM 39.5744 -81.5131 29° Northeast 421 484 35,000  Level Indianapolis Center
Thu 04:24:25 PM 39.6750 -81.4389 30° Northeast 416 479 35,000  Level Indianapolis Center
Thu 04:25:27 PM 39.7767 -81.3642 29° Northeast 419 482 35,000 -194 Level Indianapolis Center
Thu 04:26:29 PM 39.8767 -81.2903 30° Northeast 414 476 34,600 -871 Descending Indianapolis Center
Thu 04:27:31 PM 39.9775 -81.2144 30° Northeast 404 465 33,200 -774 Descending Indianapolis Center
Thu 04:28:33 PM 40.0736 -81.1433 30° Northeast 395 455 33,000 -97 Descending Indianapolis Center
Thu 04:29:35 PM 40.1700 -81.0708 30° Northeast 397 457 33,000 -48 Level Indianapolis Center
Thu 04:30:37 PM 40.2706 -80.9953 30° Northeast 412 474 32,900 -968 Descending Indianapolis Center
Thu 04:31:39 PM 40.3847 -80.9092 30° Northeast 404 465 31,000 -919 Descending Indianapolis Center
Thu 04:32:41 PM 40.4828 -80.8353 30° Northeast 405 466 31,000  Level Indianapolis Center
Thu 04:33:43 PM 40.5847 -80.7572 30° Northeast 416 479 31,000  Level Indianapolis Center
Thu 04:34:56 PM 40.7031 -80.6708 29° Northeast 400 460 31,000  Level Cleveland Center
Thu 04:35:56 PM 40.8031 -80.5914 31° Northeast 405 466 31,000  Level Cleveland Center
Thu 04:36:56 PM 40.9053 -80.5144 30° Northeast 413 475 31,000 -750 Level Cleveland Center
Thu 04:37:56 PM 41.0136 -80.4619 20° North 413 475 29,500 -1,550 Descending Cleveland Center
Thu 04:38:56 PM 41.1156 -80.4094 21° North 402 463 27,900 -1,750 Descending Cleveland Center
Thu 04:39:56 PM 41.2133 -80.3375 29° Northeast 395 455 26,000 -1,550 Descending Cleveland Center
Thu 04:40:56 PM 41.3111 -80.2569 32° Northeast 395 455 24,800 -1,050 Descending Cleveland Center
Thu 04:41:56 PM 41.4069 -80.1761 32° Northeast 401 461 23,900 -400 Descending Cleveland Center
Thu 04:42:56 PM 41.5003 -80.1008 31° Northeast 406 467 24,000 50 Climbing Cleveland Center
Thu 04:43:56 PM 41.5981 -80.0250 30° Northeast 406 467 24,000  Level Cleveland Center
Thu 04:44:56 PM 41.7017 -79.9378 32° Northeast 406 467 24,000 -150 Level Cleveland Center
Thu 04:45:56 PM 41.7992 -79.8617 30° Northeast 401 461 23,700 -900 Descending Cleveland Center
Thu 04:46:56 PM 41.8906 -79.7797 34° Northeast 401 461 22,200 -1,500 Descending Cleveland Center
Thu 04:47:56 PM 41.9836 -79.7033 31° Northeast 394 453 20,700 -1,450 Descending Cleveland Center
Thu 04:48:56 PM 42.0728 -79.6264 33° Northeast 388 447 19,300 -1,450 Descending Cleveland Center
Thu 04:49:56 PM 42.1617 -79.5525 32° Northeast 382 440 17,800 -1,550 Descending Cleveland Center
Thu 04:50:56 PM 42.2486 -79.4808 31° Northeast 382 440 16,200 -1,850 Descending Cleveland Center
Thu 04:51:56 PM 42.3333 -79.4092 32° Northeast 376 433 14,100 -1,900 Descending Cleveland Center
Thu 04:52:56 PM 42.4139 -79.3317 35° Northeast 363 418 12,400 -1,300 Descending Cleveland Center
Thu 04:53:56 PM 42.4900 -79.2486 39° Northeast 352 405 11,500 -950 Descending Cleveland Center
Thu 04:54:56 PM 42.5414 -79.1911 39° Northeast 327 376 10,500 -1,350 Descending Cleveland Center
Thu 04:55:56 PM 42.6175 -79.1133 37° Northeast 292 336 8,800 -1,550 Descending Cleveland Center
Thu 04:56:56 PM 42.6772 -79.0442 40° Northeast 286 329 7,400 -1,150 Descending Cleveland Center
Thu 04:57:56 PM 42.7264 -78.9892 39° Northeast 273 314 6,500 -1,100 Descending Cleveland Center
Thu 04:58:56 PM 42.7736 -78.9342 41° Northeast 223 257 5,200 -1,300 Descending Cleveland Center

Login

Don't have an account? Register now (free) for customized features, flight alerts, and more!